createdAt,value
2022-11-05T00:01:03.152Z,100095.22
2022-11-05T00:02:24.135Z,100104.59
2022-11-05T00:03:44.708Z,100096.56
2022-11-05T00:05:05.747Z,100097.38
2022-11-05T00:06:29.039Z,100098.91
2022-11-05T00:07:58.375Z,100099.13
2022-11-05T00:09:18.763Z,100102.66
2022-11-05T00:10:24.268Z,100109.00
2022-11-05T00:11:46.858Z,100103.66
2022-11-05T00:13:07.858Z,100111.53
2022-11-05T00:14:29.048Z,100110.47
2022-11-05T00:15:49.830Z,100115.16
2022-11-05T00:16:52.087Z,100111.94
2022-11-05T00:17:54.251Z,100111.63
2022-11-05T00:19:09.230Z,100110.66
2022-11-05T00:20:13.648Z,100114.16
2022-11-05T00:21:34.106Z,100118.47
2022-11-05T00:22:55.041Z,100124.63
2022-11-05T00:24:20.405Z,100114.03
2022-11-05T00:25:25.486Z,100121.44
2022-11-05T00:26:27.647Z,100125.38
2022-11-05T00:27:35.579Z,100126.03
2022-11-05T00:28:43.723Z,100127.19
2022-11-05T00:29:46.128Z,100123.91
2022-11-05T00:30:48.880Z,100125.69
2022-11-05T00:31:51.064Z,100124.03
2022-11-05T00:32:53.496Z,100123.22
2022-11-05T00:33:58.706Z,100133.00
2022-11-05T00:35:01.290Z,100133.47
2022-11-05T00:36:07.812Z,100130.06
2022-11-05T00:37:09.970Z,100129.97
2022-11-05T00:38:13.130Z,100130.06
2022-11-05T00:39:15.537Z,100130.41
2022-11-05T00:40:18.028Z,100139.88
2022-11-05T00:41:20.748Z,100138.75
2022-11-05T00:42:41.383Z,100132.38
2022-11-05T00:44:02.766Z,100145.56
2022-11-05T00:45:07.405Z,100142.44
2022-11-05T00:46:10.098Z,100149.31
2022-11-05T00:47:50.927Z,100141.06
2022-11-05T00:49:11.492Z,100142.50
2022-11-05T00:50:14.229Z,100146.94
2022-11-05T00:51:19.777Z,100148.88
2022-11-05T00:52:40.836Z,100153.41
2022-11-05T00:53:43.214Z,100152.50
2022-11-05T00:54:45.388Z,100153.34
2022-11-05T00:55:51.021Z,100154.50
2022-11-05T00:56:53.429Z,100156.25
2022-11-05T00:57:57.324Z,100149.25
2022-11-05T00:58:59.696Z,100157.28
2022-11-05T01:00:01.878Z,100153.13
2022-11-05T01:01:04.527Z,100151.38
2022-11-05T01:02:07.098Z,100153.13
2022-11-05T01:03:12.352Z,100149.50
2022-11-05T01:04:14.755Z,100157.41
2022-11-05T01:05:17.334Z,100159.66
2022-11-05T01:06:19.503Z,100157.66
2022-11-05T01:07:21.866Z,100157.78
2022-11-05T01:08:26.351Z,100161.19
2022-11-05T01:09:28.542Z,100162.22
2022-11-05T01:10:30.739Z,100163.28
2022-11-05T01:11:33.514Z,100163.00
2022-11-05T01:12:39.027Z,100165.31
2022-11-05T01:13:41.353Z,100166.13
2022-11-05T01:14:44.720Z,100170.66
2022-11-05T01:15:50.976Z,100164.56
2022-11-05T01:16:53.598Z,100170.28
2022-11-05T01:17:56.940Z,100172.91
2022-11-05T01:19:00.702Z,100171.22
2022-11-05T01:20:05.354Z,100176.59
2022-11-05T01:21:15.764Z,100175.38
2022-11-05T01:22:18.156Z,100171.84
2022-11-05T01:23:21.122Z,100173.56
2022-11-05T01:24:23.800Z,100173.69
2022-11-05T01:25:26.438Z,100170.06
2022-11-05T01:26:31.612Z,100173.16
2022-11-05T01:27:33.998Z,100177.63
2022-11-05T01:28:39.206Z,100173.09
2022-11-05T01:29:42.271Z,100169.41
2022-11-05T01:30:55.960Z,100171.16
2022-11-05T01:31:58.518Z,100176.44
2022-11-05T01:33:00.700Z,100173.00
2022-11-05T01:34:03.103Z,100182.97
2022-11-05T01:35:07.203Z,100176.00
2022-11-05T01:36:09.633Z,100183.44
2022-11-05T01:37:12.056Z,100185.06
2022-11-05T01:38:14.230Z,100183.28
2022-11-05T01:39:19.759Z,100179.66
2022-11-05T01:40:24.047Z,100186.00
2022-11-05T01:41:26.196Z,100187.81
2022-11-05T01:42:32.908Z,100174.50
2022-11-05T01:43:54.602Z,100185.00
2022-11-05T01:45:19.822Z,100179.84
2022-11-05T01:46:36.553Z,100186.00
2022-11-05T01:47:47.818Z,100183.44
2022-11-05T01:48:56.156Z,100185.25
2022-11-05T01:50:03.509Z,100181.50
2022-11-05T01:51:12.021Z,100184.66
2022-11-05T01:52:14.398Z,100180.75
2022-11-05T01:53:25.638Z,100191.91
2022-11-05T01:54:32.066Z,100189.47
2022-11-05T01:55:41.728Z,100190.53
2022-11-05T01:56:53.622Z,100190.59
2022-11-05T01:57:59.025Z,100187.06
2022-11-05T01:59:25.767Z,100186.22
2022-11-05T02:00:28.055Z,100184.13
2022-11-05T02:01:30.430Z,100183.84
2022-11-05T02:02:33.080Z,100190.06
2022-11-05T02:03:36.253Z,100181.97
2022-11-05T02:04:44.724Z,100197.22
2022-11-05T02:05:50.000Z,100189.47
2022-11-05T02:06:53.167Z,100199.25
2022-11-05T02:07:56.036Z,100200.69
2022-11-05T02:09:13.097Z,100202.16
2022-11-05T02:10:20.559Z,100205.56
2022-11-05T02:11:23.726Z,100202.78
2022-11-05T02:12:28.932Z,100201.91
2022-11-05T02:13:31.304Z,100206.31
2022-11-05T02:14:34.420Z,100202.63
2022-11-05T02:15:51.800Z,100208.19
2022-11-05T02:17:26.765Z,100205.72
2022-11-05T02:19:07.907Z,100214.13
2022-11-05T02:20:26.181Z,100213.91
2022-11-05T02:21:31.389Z,100213.75
2022-11-05T02:22:46.648Z,100210.31
2022-11-05T02:24:07.322Z,100210.25
2022-11-05T02:25:34.135Z,100215.78
2022-11-05T02:27:05.051Z,100218.34
2022-11-05T02:28:26.866Z,100222.19
2022-11-05T02:29:35.023Z,100201.66
2022-11-05T02:31:18.902Z,100222.63
2022-11-05T02:32:32.706Z,100222.44
2022-11-05T02:34:19.557Z,100228.84
2022-11-05T02:35:58.970Z,100223.88
2022-11-05T02:37:22.319Z,100231.78
2022-11-05T02:38:48.877Z,100223.00
2022-11-05T02:39:59.048Z,100227.38
2022-11-05T02:41:19.154Z,100231.28
2022-11-05T02:42:42.478Z,100232.88
2022-11-05T02:44:00.683Z,100235.41
2022-11-05T02:45:05.549Z,100237.22
2022-11-05T02:46:41.742Z,100238.97
2022-11-05T02:48:11.141Z,100244.94
2022-11-05T02:49:19.097Z,100247.31
2022-11-05T02:50:39.909Z,100247.09
2022-11-05T02:51:44.951Z,100247.25
2022-11-05T02:53:10.259Z,100250.16
2022-11-05T02:54:48.059Z,100249.56
2022-11-05T02:55:59.481Z,100257.56
2022-11-05T02:57:03.683Z,100258.44
2022-11-05T02:58:06.989Z,100256.69
2022-11-05T02:59:09.231Z,100259.59
2022-11-05T03:00:39.544Z,100261.91
2022-11-05T03:01:44.082Z,100260.25
2022-11-05T03:02:46.599Z,100255.06
2022-11-05T03:03:53.847Z,100258.59
2022-11-05T03:04:56.109Z,100260.34
2022-11-05T03:06:16.791Z,100260.34
2022-11-05T03:07:55.081Z,100264.09
2022-11-05T03:09:22.035Z,100265.66
2022-11-05T03:10:35.502Z,100258.59
2022-11-05T03:12:16.249Z,100263.91
2022-11-05T03:13:41.589Z,100263.78
2022-11-05T03:15:07.165Z,100260.25
2022-11-05T03:16:20.890Z,100258.94
2022-11-05T03:18:00.395Z,100264.34
2022-11-05T03:19:35.030Z,100274.31
2022-11-05T03:20:39.868Z,100270.72
2022-11-05T03:21:48.984Z,100273.00
2022-11-05T03:23:05.000Z,100278.44
2022-11-05T03:24:26.563Z,100268.69
2022-11-05T03:25:30.691Z,100277.94
2022-11-05T03:26:45.629Z,100284.94
2022-11-05T03:27:54.113Z,100282.16
2022-11-05T03:29:06.635Z,100289.25
2022-11-05T03:30:18.661Z,100292.78
2022-11-05T03:31:23.531Z,100292.63
2022-11-05T03:32:28.614Z,100303.13
2022-11-05T03:33:35.413Z,100297.53
2022-11-05T03:34:47.814Z,100303.31
2022-11-05T03:35:56.645Z,100303.31
2022-11-05T03:37:00.862Z,100313.19
2022-11-05T03:38:08.035Z,100310.56
2022-11-05T03:39:15.748Z,100313.09
2022-11-05T03:40:21.540Z,100319.19
2022-11-05T03:41:25.329Z,100322.81
2022-11-05T03:42:32.681Z,100320.38
2022-11-05T03:43:40.333Z,100315.56
2022-11-05T03:44:48.054Z,100320.06
2022-11-05T03:46:02.350Z,100318.22
2022-11-05T03:47:09.306Z,100324.50
2022-11-05T03:48:16.124Z,100328.25
2022-11-05T03:49:30.739Z,100320.19
2022-11-05T03:50:45.206Z,100327.34
2022-11-05T03:52:16.343Z,100321.13
2022-11-05T03:53:26.085Z,100323.63
2022-11-05T03:54:32.590Z,100320.91
2022-11-05T03:56:06.703Z,100324.53
2022-11-05T03:57:10.733Z,100330.69
2022-11-05T03:58:17.498Z,100327.44
2022-11-05T03:59:20.449Z,100330.97
2022-11-05T04:00:23.432Z,100330.13
2022-11-05T04:01:26.107Z,100336.09
2022-11-05T04:02:31.776Z,100342.16
2022-11-05T04:03:36.547Z,100338.03
2022-11-05T04:04:39.500Z,100340.81
2022-11-05T04:05:41.754Z,100342.66
2022-11-05T04:07:02.403Z,100339.09
2022-11-05T04:08:25.805Z,100338.03
2022-11-05T04:09:46.347Z,100340.34
2022-11-05T04:11:07.070Z,100342.28
2022-11-05T04:12:31.011Z,100337.13
2022-11-05T04:13:33.635Z,100343.44
2022-11-05T04:14:36.098Z,100341.56
2022-11-05T04:15:57.124Z,100350.41
2022-11-05T04:17:17.322Z,100346.09
2022-11-05T04:18:19.602Z,100348.06
2022-11-05T04:19:41.849Z,100354.97
2022-11-05T04:21:03.214Z,100351.56
2022-11-05T04:22:24.476Z,100353.34
2022-11-05T04:23:45.743Z,100357.03
2022-11-05T04:24:47.913Z,100359.81
2022-11-05T04:25:50.564Z,100363.38
2022-11-05T04:26:52.899Z,100353.66
2022-11-05T04:27:58.890Z,100356.38
2022-11-05T04:29:19.946Z,100361.59
2022-11-05T04:30:22.767Z,100363.41
2022-11-05T04:31:25.086Z,100362.47
2022-11-05T04:32:27.443Z,100359.56
2022-11-05T04:33:29.595Z,100356.03
2022-11-05T04:34:31.960Z,100373.81
2022-11-05T04:35:39.920Z,100367.44
2022-11-05T04:36:43.015Z,100364.03
2022-11-05T04:37:45.342Z,100363.22
2022-11-05T04:38:47.678Z,100366.66
2022-11-05T04:39:50.047Z,100367.34
2022-11-05T04:40:54.672Z,100370.91
2022-11-05T04:41:59.977Z,100364.66
2022-11-05T04:43:02.278Z,100370.69
2022-11-05T04:44:04.741Z,100374.25
2022-11-05T04:45:07.832Z,100375.22
2022-11-05T04:46:10.363Z,100380.13
2022-11-05T04:47:12.634Z,100376.88
2022-11-05T04:48:14.950Z,100373.50
2022-11-05T04:49:17.126Z,100381.47
2022-11-05T04:50:20.093Z,100380.59
2022-11-05T04:51:22.374Z,100385.72
2022-11-05T04:52:24.549Z,100384.03
2022-11-05T04:53:26.887Z,100386.75
2022-11-05T04:54:29.279Z,100391.34
2022-11-05T04:55:31.635Z,100384.13
2022-11-05T04:56:33.892Z,100390.38
2022-11-05T04:57:36.454Z,100394.72
2022-11-05T04:58:40.653Z,100391.06
2022-11-05T04:59:43.001Z,100388.19
2022-11-05T05:00:45.397Z,100395.31
2022-11-05T05:01:52.548Z,100390.78
2022-11-05T05:02:54.804Z,100394.34
2022-11-05T05:03:57.028Z,100387.34
2022-11-05T05:04:59.369Z,100391.81
2022-11-05T05:06:04.059Z,100392.81
2022-11-05T05:07:06.588Z,100393.78
2022-11-05T05:08:09.140Z,100395.41
2022-11-05T05:09:11.332Z,100392.16
2022-11-05T05:10:13.938Z,100397.44
2022-11-05T05:11:18.375Z,100408.03
2022-11-05T05:12:23.330Z,100409.09
2022-11-05T05:13:25.677Z,100406.34
2022-11-05T05:14:28.893Z,100406.41
2022-11-05T05:15:31.850Z,100405.47
2022-11-05T05:16:34.135Z,100410.03
2022-11-05T05:17:36.766Z,100402.75
2022-11-05T05:18:42.207Z,100399.88
2022-11-05T05:20:08.563Z,100403.28
2022-11-05T05:21:29.938Z,100408.63
2022-11-05T05:22:32.099Z,100414.41
2022-11-05T05:23:34.485Z,100413.78
2022-11-05T05:24:39.574Z,100416.56
2022-11-05T05:25:41.900Z,100417.78
2022-11-05T05:26:46.876Z,100415.97
2022-11-05T05:27:49.276Z,100426.50
2022-11-05T05:28:55.544Z,100419.84
2022-11-05T05:29:59.437Z,100428.53
2022-11-05T05:31:02.307Z,100434.88
2022-11-05T05:32:06.460Z,100432.25
2022-11-05T05:33:10.320Z,100427.19
2022-11-05T05:34:14.722Z,100431.63
2022-11-05T05:35:17.365Z,100439.47
2022-11-05T05:36:21.954Z,100436.69
2022-11-05T05:37:26.936Z,100442.75
2022-11-05T05:38:30.068Z,100450.91
2022-11-05T05:39:35.235Z,100443.88
2022-11-05T05:40:37.644Z,100444.91
2022-11-05T05:41:42.488Z,100458.13
2022-11-05T05:42:45.245Z,100462.47
2022-11-05T05:43:48.145Z,100458.78
2022-11-05T05:44:50.516Z,100473.13
2022-11-05T05:45:52.815Z,100467.78
2022-11-05T05:46:55.552Z,100465.38
2022-11-05T05:47:57.983Z,100478.63
2022-11-05T05:49:00.405Z,100472.97
2022-11-05T05:50:02.605Z,100475.50
2022-11-05T05:51:10.109Z,100473.78
2022-11-05T05:52:12.319Z,100476.69
2022-11-05T05:53:14.694Z,100474.97
2022-11-05T05:54:17.396Z,100472.47
2022-11-05T05:55:19.591Z,100471.53
2022-11-05T05:56:21.970Z,100478.75
2022-11-05T05:57:24.221Z,100470.81
2022-11-05T05:58:30.580Z,100475.03
2022-11-05T05:59:33.187Z,100476.13
2022-11-05T06:00:36.003Z,100477.94
2022-11-05T06:01:38.698Z,100478.16
2022-11-05T06:02:41.707Z,100478.09
2022-11-05T06:03:44.573Z,100474.63
2022-11-05T06:04:46.928Z,100472.69
2022-11-05T06:05:49.091Z,100471.63
2022-11-05T06:06:51.462Z,100471.53
2022-11-05T06:07:57.577Z,100468.97
2022-11-05T06:08:59.982Z,100473.69
2022-11-05T06:10:02.397Z,100469.59
2022-11-05T06:11:05.295Z,100469.69
2022-11-05T06:12:07.667Z,100473.31
2022-11-05T06:13:12.355Z,100473.00
2022-11-05T06:14:14.851Z,100479.38
2022-11-05T06:15:20.530Z,100478.47
2022-11-05T06:16:22.759Z,100480.25
2022-11-05T06:17:25.277Z,100478.34
2022-11-05T06:18:29.045Z,100482.75
2022-11-05T06:19:33.280Z,100477.38
2022-11-05T06:20:37.756Z,100489.03
2022-11-05T06:21:40.099Z,100481.91
2022-11-05T06:22:42.498Z,100485.63
2022-11-05T06:23:46.388Z,100485.81
2022-11-05T06:24:49.027Z,100488.53
2022-11-05T06:25:51.275Z,100478.47
2022-11-05T06:26:53.449Z,100476.72
2022-11-05T06:27:58.472Z,100475.00
2022-11-05T06:29:00.666Z,100479.66
2022-11-05T06:30:04.925Z,100489.56
2022-11-05T06:31:07.139Z,100482.38
2022-11-05T06:32:09.476Z,100489.31
2022-11-05T06:33:11.845Z,100482.19
2022-11-05T06:34:14.283Z,100485.63
2022-11-05T06:35:17.185Z,100500.00
2022-11-05T06:36:22.456Z,100496.53
2022-11-05T06:37:24.944Z,100496.59
2022-11-05T06:38:27.660Z,100495.72
2022-11-05T06:39:29.972Z,100504.44
2022-11-05T06:40:36.714Z,100507.97
2022-11-05T06:43:03.378Z,100510.31
2022-11-05T06:44:05.738Z,100513.00
2022-11-05T06:45:11.550Z,100514.72
2022-11-05T06:46:13.881Z,100515.41
2022-11-05T06:47:19.948Z,100516.16
2022-11-05T06:48:22.526Z,100521.34
2022-11-05T06:49:25.646Z,100528.66
2022-11-05T06:50:29.074Z,100513.59
2022-11-05T06:51:33.337Z,100522.38
2022-11-05T06:52:41.242Z,100516.25
2022-11-05T06:53:43.911Z,100523.38
2022-11-05T06:54:46.358Z,100527.63
2022-11-05T06:55:52.064Z,100518.06
2022-11-05T06:56:55.007Z,100526.31
2022-11-05T06:57:58.069Z,100529.97
2022-11-05T06:59:00.428Z,100531.72
2022-11-05T07:00:07.630Z,100536.91
2022-11-05T07:01:10.811Z,100541.22
2022-11-05T07:02:13.896Z,100541.09
2022-11-05T07:03:16.270Z,100537.59
2022-11-05T07:04:18.478Z,100529.81
2022-11-05T07:05:22.928Z,100538.63
2022-11-05T07:06:25.160Z,100536.09
2022-11-05T07:07:27.552Z,100541.31
2022-11-05T07:08:34.221Z,100541.84
2022-11-05T07:09:42.506Z,100539.34
2022-11-05T07:10:44.942Z,100539.34
2022-11-05T07:11:47.124Z,100543.75
2022-11-05T07:12:49.533Z,100545.56
2022-11-05T07:13:51.731Z,100547.38
2022-11-05T07:14:54.109Z,100551.81
2022-11-05T07:15:56.805Z,100549.28
2022-11-05T07:16:58.986Z,100553.97
2022-11-05T07:18:02.130Z,100553.09
2022-11-05T07:19:04.863Z,100561.88
2022-11-05T07:20:08.267Z,100563.50
2022-11-05T07:21:10.629Z,100567.94
2022-11-05T07:22:12.844Z,100568.03
2022-11-05T07:23:16.096Z,100569.94
2022-11-05T07:24:18.547Z,100562.06
2022-11-05T07:25:23.563Z,100565.91
2022-11-05T07:26:31.900Z,100570.50
2022-11-05T07:27:40.236Z,100578.91
2022-11-05T07:28:42.524Z,100580.72
2022-11-05T07:29:44.964Z,100587.84
2022-11-05T07:30:48.362Z,100585.97
2022-11-05T07:31:51.047Z,100586.75
2022-11-05T07:32:53.488Z,100590.41
2022-11-05T07:33:56.103Z,100596.56
2022-11-05T07:34:58.260Z,100593.03
2022-11-05T07:36:00.682Z,100589.84
2022-11-05T07:37:02.945Z,100595.81
2022-11-05T07:38:05.143Z,100602.00
2022-11-05T07:39:07.567Z,100597.41
2022-11-05T07:40:11.523Z,100602.63
2022-11-05T07:41:13.898Z,100607.00
2022-11-05T07:42:16.082Z,100612.72
2022-11-05T07:43:18.374Z,100604.75
2022-11-05T07:44:23.891Z,100615.34
2022-11-05T07:45:28.769Z,100610.22
2022-11-05T07:46:31.679Z,100614.84
2022-11-05T07:47:36.241Z,100613.94
2022-11-05T07:48:38.594Z,100615.03
2022-11-05T07:49:41.113Z,100619.59
2022-11-05T07:50:43.333Z,100619.69
2022-11-05T07:51:45.898Z,100621.41
2022-11-05T07:52:48.975Z,100624.78
2022-11-05T07:53:51.241Z,100627.19
2022-11-05T07:54:53.593Z,100629.56
2022-11-05T07:55:57.192Z,100625.03
2022-11-05T07:56:59.823Z,100631.22
2022-11-05T07:58:02.685Z,100628.13
2022-11-05T07:59:05.217Z,100627.94
2022-11-05T08:00:09.153Z,100631.16
2022-11-05T08:01:14.756Z,100634.44
2022-11-05T08:02:17.262Z,100636.34
2022-11-05T08:03:20.293Z,100634.16
2022-11-05T08:04:22.859Z,100631.09
2022-11-05T08:05:25.152Z,100628.25
2022-11-05T08:06:27.700Z,100633.53
2022-11-05T08:07:30.095Z,100624.06
2022-11-05T08:08:35.626Z,100631.75
2022-11-05T08:09:38.066Z,100628.09
2022-11-05T08:10:45.328Z,100632.78
2022-11-05T08:11:52.933Z,100629.34
2022-11-05T08:12:56.393Z,100633.84
2022-11-05T08:13:58.589Z,100642.66
2022-11-05T08:15:01.014Z,100636.09
2022-11-05T08:16:04.566Z,100642.72
2022-11-05T08:17:10.751Z,100638.31
2022-11-05T08:18:16.441Z,100637.78
2022-11-05T08:19:18.685Z,100645.81
2022-11-05T08:20:21.057Z,100645.56
2022-11-05T08:21:25.321Z,100652.34
2022-11-05T08:22:27.764Z,100645.06
2022-11-05T08:23:32.171Z,100654.78
2022-11-05T08:24:34.336Z,100650.91
2022-11-05T08:25:37.066Z,100652.84
2022-11-05T08:26:39.246Z,100652.47
2022-11-05T08:27:41.647Z,100647.97
2022-11-05T08:28:43.983Z,100645.56
2022-11-05T08:29:46.139Z,100654.75
2022-11-05T08:30:50.322Z,100655.50
2022-11-05T08:31:52.685Z,100652.66
2022-11-05T08:33:00.168Z,100645.84
2022-11-05T08:34:03.000Z,100668.53
2022-11-05T08:35:05.943Z,100663.94
2022-11-05T08:36:08.162Z,100656.56
2022-11-05T08:37:10.530Z,100660.69
2022-11-05T08:38:15.540Z,100663.69
2022-11-05T08:39:18.964Z,100665.44
2022-11-05T08:40:21.168Z,100669.16
2022-11-05T08:41:23.772Z,100666.34
2022-11-05T08:42:26.194Z,100670.97
2022-11-05T08:43:28.476Z,100668.03
2022-11-05T08:44:30.829Z,100669.13
2022-11-05T08:45:34.454Z,100673.13
2022-11-05T08:46:41.456Z,100665.84
2022-11-05T08:47:44.242Z,100672.06
2022-11-05T08:48:46.419Z,100678.63
2022-11-05T08:49:48.619Z,100669.91
2022-11-05T08:50:51.046Z,100674.94
2022-11-05T08:51:53.326Z,100670.66
2022-11-05T08:52:55.909Z,100681.38
2022-11-05T08:53:58.201Z,100678.69
2022-11-05T08:55:01.069Z,100682.22
2022-11-05T08:56:03.300Z,100678.03
2022-11-05T08:57:05.507Z,100682.44
2022-11-05T08:58:12.804Z,100684.09
2022-11-05T08:59:15.021Z,100683.28
2022-11-05T09:00:18.166Z,100688.16
2022-11-05T09:01:20.520Z,100684.00
2022-11-05T09:02:23.019Z,100684.19
2022-11-05T09:03:25.507Z,100686.13
2022-11-05T09:04:27.764Z,100688.06
2022-11-05T09:05:31.551Z,100681.72
2022-11-05T09:06:35.723Z,100696.44
2022-11-05T09:07:38.285Z,100684.69
2022-11-05T09:08:41.384Z,100689.59
2022-11-05T09:09:43.729Z,100687.31
2022-11-05T09:10:47.747Z,100697.41
2022-11-05T09:12:11.140Z,100693.91
2022-11-05T09:13:18.254Z,100700.09
2022-11-05T09:14:21.424Z,100708.13
2022-11-05T09:15:27.931Z,100704.78
2022-11-05T09:16:32.572Z,100710.50
2022-11-05T09:17:34.813Z,100715.63
2022-11-05T09:18:39.166Z,100704.63
2022-11-05T09:19:41.345Z,100707.84
2022-11-05T09:20:43.823Z,100707.50
2022-11-05T09:21:46.233Z,100704.91
2022-11-05T09:22:48.664Z,100709.72
2022-11-05T09:23:51.148Z,100699.25
2022-11-05T09:24:53.415Z,100711.84
2022-11-05T09:25:55.693Z,100705.69
2022-11-05T09:26:58.157Z,100714.22
2022-11-05T09:28:31.678Z,100717.91
2022-11-05T09:29:33.994Z,100717.28
2022-11-05T09:30:40.340Z,100724.72
2022-11-05T09:31:42.865Z,100723.50
2022-11-05T09:32:45.059Z,100729.25
2022-11-05T09:33:47.531Z,100725.50
2022-11-05T09:34:50.120Z,100726.69
2022-11-05T09:35:53.520Z,100731.19
2022-11-05T09:36:57.086Z,100731.13
2022-11-05T09:38:01.096Z,100739.72
2022-11-05T09:39:03.801Z,100728.63
2022-11-05T09:40:07.086Z,100737.88
2022-11-05T09:41:20.986Z,100738.31
2022-11-05T09:42:29.377Z,100739.66
2022-11-05T09:44:00.937Z,100741.28
2022-11-05T09:45:09.268Z,100735.84
2022-11-05T09:46:24.095Z,100729.72
2022-11-05T09:47:33.196Z,100733.09
2022-11-05T09:48:38.093Z,100729.16
2022-11-05T09:49:44.257Z,100731.63
2022-11-05T09:50:46.567Z,100734.88
2022-11-05T09:51:49.047Z,100732.59
2022-11-05T09:52:51.528Z,100736.44
2022-11-05T09:53:54.292Z,100732.47
2022-11-05T09:55:01.810Z,100740.22
2022-11-05T09:56:04.539Z,100739.75
2022-11-05T09:57:15.823Z,100736.41
2022-11-05T09:58:28.513Z,100738.66
2022-11-05T09:59:50.844Z,100742.34
2022-11-05T10:00:53.399Z,100741.84
2022-11-05T10:02:04.197Z,100740.72
2022-11-05T10:03:10.796Z,100743.22
2022-11-05T10:04:21.485Z,100749.59
2022-11-05T10:05:26.195Z,100748.53
2022-11-05T10:06:29.467Z,100755.44
2022-11-05T10:07:41.171Z,100744.47
2022-11-05T10:08:47.362Z,100750.63
2022-11-05T10:09:53.797Z,100752.69
2022-11-05T10:11:22.166Z,100758.84
2022-11-05T10:12:30.504Z,100758.09
2022-11-05T10:14:02.423Z,100755.88
2022-11-05T10:15:17.205Z,100757.16
2022-11-05T10:16:39.013Z,100760.16
2022-11-05T10:17:48.974Z,100761.00
2022-11-05T10:19:06.348Z,100771.06
2022-11-05T10:20:11.530Z,100769.50
2022-11-05T10:21:32.287Z,100774.03
2022-11-05T10:22:43.963Z,100771.88
2022-11-05T10:23:50.565Z,100774.97
2022-11-05T10:24:55.077Z,100772.88
2022-11-05T10:26:02.974Z,100762.84
2022-11-05T10:27:05.552Z,100762.84
2022-11-05T10:28:09.948Z,100760.81
2022-11-05T10:29:16.429Z,100761.66
2022-11-05T10:30:19.782Z,100769.38
2022-11-05T10:31:23.395Z,100767.44
2022-11-05T10:32:34.218Z,100771.69
2022-11-05T10:33:51.504Z,100765.50
2022-11-05T10:34:58.516Z,100771.53
2022-11-05T10:36:07.227Z,100775.31
2022-11-05T10:37:10.389Z,100778.25
2022-11-05T10:38:15.641Z,100782.38
2022-11-05T10:39:20.111Z,100773.25
2022-11-05T10:40:49.792Z,100782.06
2022-11-05T10:41:57.898Z,100776.63
2022-11-05T10:43:10.521Z,100783.59
2022-11-05T10:44:39.087Z,100782.06
2022-11-05T10:45:59.485Z,100785.50
2022-11-05T10:47:42.948Z,100781.09
2022-11-05T10:48:45.184Z,100792.03
2022-11-05T10:50:17.063Z,100794.13
2022-11-05T10:51:19.747Z,100796.75
2022-11-05T10:52:30.757Z,100790.53
2022-11-05T10:53:35.186Z,100795.72
2022-11-05T10:54:37.531Z,100795.47
2022-11-05T10:55:46.279Z,100785.66
2022-11-05T10:56:49.085Z,100799.78
2022-11-05T10:57:52.661Z,100790.38
2022-11-05T10:58:57.277Z,100799.03
2022-11-05T11:00:18.092Z,100795.84
2022-11-05T11:01:27.540Z,100798.34
2022-11-05T11:02:30.485Z,100788.19
2022-11-05T11:03:51.192Z,100794.03
2022-11-05T11:04:58.445Z,100795.38
2022-11-05T11:06:07.283Z,100790.34
2022-11-05T11:07:38.872Z,100794.22
2022-11-05T11:08:45.570Z,100792.56
2022-11-05T11:09:49.990Z,100795.03
2022-11-05T11:10:58.714Z,100795.13
2022-11-05T11:12:04.396Z,100796.09
2022-11-05T11:13:08.445Z,100794.75
2022-11-05T11:14:13.464Z,100796.09
2022-11-05T11:15:27.792Z,100798.38
2022-11-05T11:16:35.886Z,100799.84
2022-11-05T11:17:38.217Z,100806.03
2022-11-05T11:18:43.634Z,100798.16
2022-11-05T11:19:47.138Z,100802.56
2022-11-05T11:20:49.448Z,100800.63
2022-11-05T11:22:03.211Z,100798.25
2022-11-05T11:23:12.921Z,100804.78
2022-11-05T11:24:26.069Z,100798.59
2022-11-05T11:25:41.975Z,100798.66
2022-11-05T11:26:44.601Z,100793.28
2022-11-05T11:27:47.343Z,100804.78
2022-11-05T11:29:07.598Z,100801.13
2022-11-05T11:30:18.551Z,100801.22
2022-11-05T11:31:24.224Z,100809.00
2022-11-05T11:32:47.608Z,100801.66
2022-11-05T11:33:55.880Z,100801.59
2022-11-05T11:34:58.536Z,100801.75
2022-11-05T11:36:05.144Z,100806.06
2022-11-05T11:37:19.354Z,100804.13
2022-11-05T11:38:23.237Z,100802.56
2022-11-05T11:39:29.073Z,100802.41
2022-11-05T11:40:38.356Z,100791.56
2022-11-05T11:41:44.075Z,100797.47
2022-11-05T11:42:51.053Z,100794.91
2022-11-05T11:44:04.716Z,100801.53
2022-11-05T11:45:29.876Z,100799.59
2022-11-05T11:46:34.714Z,100806.72
2022-11-05T11:47:44.224Z,100799.06
2022-11-05T11:48:48.808Z,100798.66
2022-11-05T11:49:54.636Z,100803.84
2022-11-05T11:51:01.876Z,100801.09
2022-11-05T11:52:10.917Z,100797.84
2022-11-05T11:53:20.005Z,100795.84
2022-11-05T11:54:28.960Z,100803.94
2022-11-05T11:55:31.722Z,100804.03
2022-11-05T11:56:44.885Z,100799.16
2022-11-05T11:57:52.769Z,100801.66
2022-11-05T11:58:57.793Z,100802.19
2022-11-05T12:00:09.206Z,100801.81
2022-11-05T12:01:12.054Z,100797.63
2022-11-05T12:02:20.614Z,100797.31
2022-11-05T12:03:39.227Z,100804.78
2022-11-05T12:04:55.594Z,100804.50
2022-11-05T12:06:24.356Z,100802.16
2022-11-05T12:07:39.578Z,100801.88
2022-11-05T12:09:06.732Z,100808.94
2022-11-05T12:10:18.903Z,100809.75
2022-11-05T12:11:34.221Z,100810.94
2022-11-05T12:13:13.912Z,100807.81
2022-11-05T12:14:46.620Z,100811.81
2022-11-05T12:16:17.393Z,100808.19
2022-11-05T12:18:01.687Z,100805.69
2022-11-05T12:19:24.972Z,100808.75
2022-11-05T12:20:41.882Z,100807.22
2022-11-05T12:22:10.912Z,100811.56
2022-11-05T12:23:19.174Z,100809.69
2022-11-05T12:24:21.897Z,100816.53
2022-11-05T12:25:30.636Z,100810.94
2022-11-05T12:27:01.498Z,100815.63
2022-11-05T12:28:22.416Z,100811.06
2022-11-05T12:29:36.954Z,100818.06
2022-11-05T12:31:00.652Z,100803.28
2022-11-05T12:32:21.808Z,100811.53
2022-11-05T12:33:27.168Z,100807.91
2022-11-05T12:34:35.286Z,100809.78
2022-11-05T12:35:57.605Z,100808.75
2022-11-05T12:37:15.344Z,100811.31
2022-11-05T12:38:35.213Z,100807.47
2022-11-05T12:39:43.532Z,100820.03
2022-11-05T12:41:16.839Z,100821.91
2022-11-05T12:42:50.935Z,100817.34
2022-11-05T12:44:08.283Z,100826.41
2022-11-05T12:45:44.941Z,100825.84
2022-11-05T12:47:08.940Z,100833.38
2022-11-05T12:48:57.479Z,100824.59
2022-11-05T12:50:17.911Z,100830.81
2022-11-05T12:51:25.103Z,100836.72
2022-11-05T12:53:01.139Z,100827.53
2022-11-05T12:54:25.071Z,100828.06
2022-11-05T12:55:32.726Z,100825.44
2022-11-05T12:56:47.564Z,100820.81
2022-11-05T12:57:54.697Z,100823.34
2022-11-05T12:59:31.896Z,100821.53
2022-11-05T13:00:35.962Z,100828.31
2022-11-05T13:01:46.108Z,100831.06
2022-11-05T13:03:15.295Z,100830.41